Time;durP1;ratioP1;P1;durP2;ratioP2;P2;SDS_P1;SDS_P2;PMS_P1;PMS_P2;Temp;Humidity;BMP_temperature;BMP_pressure;BME280_temperature;BME280_humidity;BME280_pressure;Samples;Min_cycle;Max_cycle;Signal;HPM_P1;HPM_P2
2023/01/29 15:05:36;;;;;;;18.00;10.88;;;6.30;97.20;;;;;;6221208;22;884712;-63
2023/01/29 15:08:31;;;;;;;17.75;10.75;;;6.30;97.30;;;;;;6203000;22;1316362;-60
2023/01/29 15:11:33;;;;;;;16.85;11.20;;;6.20;97.40;;;;;;6251812;23;20030;-63
2023/01/29 15:14:22;;;;;;;20.38;12.88;;;6.20;97.40;;;;;;6252134;23;20023;-62
2023/01/29 15:17:28;;;;;;;17.40;12.02;;;6.10;97.40;;;;;;6254452;23;20011;-64
2023/01/29 15:20:34;;;;;;;18.52;11.38;;;6.10;97.60;;;;;;6253217;23;20566;-64
2023/01/29 15:36:22;;;;;;;15.63;10.25;;;6.00;97.80;;;;;;6141261;22;20482;-76
2023/01/29 15:39:08;;;;;;;17.13;11.20;;;5.90;97.90;;;;;;6187302;23;20043;-79
2023/01/29 15:42:11;;;;;;;16.67;10.93;;;5.90;98.10;;;;;;6187523;23;20005;-78
2023/01/29 15:44:57;;;;;;;18.02;12.07;;;5.80;97.90;;;;;;6208395;23;20008;-79
2023/01/29 15:47:43;;;;;;;15.45;10.88;;;5.80;97.90;;;;;;6212396;23;20340;-80
2023/01/29 15:50:31;;;;;;;17.40;10.93;;;5.80;97.90;;;;;;6212275;23;20001;-79
2023/01/29 15:53:21;;;;;;;18.48;11.82;;;5.80;97.90;;;;;;6212572;23;20013;-80
2023/01/29 15:56:11;;;;;;;15.02;11.13;;;5.70;98.00;;;;;;6212733;23;20011;-79
2023/01/29 15:59:01;;;;;;;15.77;10.43;;;5.70;98.00;;;;;;6192846;23;20015;-79
2023/01/29 16:01:47;;;;;;;18.20;10.30;;;5.70;98.00;;;;;;6213151;23;20375;-80
2023/01/29 16:04:33;;;;;;;20.27;12.45;;;5.70;98.00;;;;;;6212337;23;20012;-81
2023/01/29 16:07:21;;;;;;;16.35;11.15;;;5.70;98.00;;;;;;6213310;23;20351;-81
2023/01/29 16:10:16;;;;;;;17.65;11.18;;;5.70;98.10;;;;;;6214961;23;20494;-70
2023/01/29 16:13:02;;;;;;;18.13;11.02;;;5.60;98.10;;;;;;6211630;23;20012;-68
2023/01/29 16:16:18;;;;;;;17.25;10.48;;;5.60;98.10;;;;;;6212429;23;20392;-69
2023/01/29 16:19:26;;;;;;;15.48;11.23;;;5.60;98.20;;;;;;6211128;23;20036;-69
2023/01/29 16:22:14;;;;;;;14.80;10.27;;;5.60;98.20;;;;;;6212120;23;20011;-69
2023/01/29 16:25:11;;;;;;;17.75;11.82;;;5.60;98.10;;;;;;6189352;23;20040;-68
2023/01/29 16:27:57;;;;;;;19.00;12.35;;;5.60;98.20;;;;;;6212846;23;20009;-69
2023/01/29 16:30:43;;;;;;;18.52;11.50;;;5.60;98.20;;;;;;6211588;23;20016;-69
2023/01/29 16:33:38;;;;;;;15.00;10.57;;;5.60;98.40;;;;;;6212052;23;20013;-69
2023/01/29 16:36:26;;;;;;;15.93;10.70;;;5.60;98.20;;;;;;6211336;23;20014;-69
2023/01/29 16:39:26;;;;;;;17.30;11.48;;;5.60;98.20;;;;;;6212509;23;20440;-69
2023/01/29 16:42:16;;;;;;;17.92;12.38;;;5.60;98.30;;;;;;6210663;23;20005;-69
2023/01/29 16:45:06;;;;;;;19.08;12.18;;;5.60;98.20;;;;;;6213723;23;20019;-69
2023/01/29 16:48:24;;;;;;;18.27;12.25;;;5.50;98.30;;;;;;6209648;23;20079;-68
2023/01/29 16:51:29;;;;;;;17.75;11.65;;;5.60;98.40;;;;;;6209734;23;20016;-68
2023/01/29 16:54:17;;;;;;;17.75;12.57;;;5.60;98.40;;;;;;6212181;23;20012;-67
2023/01/29 16:57:03;;;;;;;20.88;13.05;;;5.60;98.40;;;;;;6214246;23;20306;-68
2023/01/29 16:59:53;;;;;;;18.63;13.55;;;5.60;98.40;;;;;;6209910;23;20051;-68
2023/01/29 17:02:39;;;;;;;23.27;13.23;;;5.60;98.40;;;;;;6214691;23;20013;-68
2023/01/29 17:05:30;;;;;;;20.70;13.02;;;5.50;98.40;;;;;;6209939;23;20428;-68
2023/01/29 17:08:21;;;;;;;20.38;13.52;;;5.60;98.50;;;;;;6215586;23;20004;-68
2023/01/29 17:11:08;;;;;;;18.27;12.82;;;5.60;98.50;;;;;;6192018;23;20001;-69
2023/01/29 17:13:55;;;;;;;18.17;11.60;;;5.60;98.50;;;;;;6211300;23;20040;-69
2023/01/29 17:17:01;;;;;;;21.15;12.02;;;5.60;98.50;;;;;;6213190;23;20009;-69
2023/01/29 17:19:47;;;;;;;;;;;5.60;98.50;;;;;;6210689;23;20005;-69
2023/01/29 17:22:33;;;;;;;17.45;11.70;;;5.60;98.40;;;;;;6212037;23;19903;-69
2023/01/29 17:25:20;;;;;;;20.67;12.98;;;5.60;98.40;;;;;;6211976;23;20015;-69
2023/01/29 17:28:09;;;;;;;19.75;12.38;;;5.60;98.40;;;;;;6212312;23;20001;-68
2023/01/29 17:30:55;;;;;;;19.77;12.65;;;5.60;98.50;;;;;;6214247;23;20038;-68
2023/01/29 17:33:42;;;;;;;22.80;14.32;;;5.60;98.50;;;;;;6210714;23;20023;-68
2023/01/29 17:36:28;;;;;;;20.85;12.35;;;5.60;98.50;;;;;;6211116;23;20008;-68
2023/01/29 17:39:17;;;;;;;18.77;12.70;;;5.60;98.50;;;;;;6214380;23;20013;-68
2023/01/29 17:42:03;;;;;;;17.55;11.88;;;5.60;98.40;;;;;;6193497;23;20029;-67
2023/01/29 17:44:49;;;;;;;17.90;11.98;;;5.60;98.40;;;;;;6211568;23;20332;-68
2023/01/29 17:47:35;;;;;;;18.90;11.13;;;5.60;98.30;;;;;;6209920;23;20007;-68
2023/01/29 17:50:24;;;;;;;17.05;11.27;;;5.70;98.40;;;;;;6209932;23;20008;-68
2023/01/29 17:53:10;;;;;;;17.63;10.90;;;5.60;98.40;;;;;;6210646;23;20012;-68
2023/01/29 17:55:56;;;;;;;18.33;11.52;;;5.60;98.40;;;;;;6210667;23;20005;-69
2023/01/29 17:58:42;;;;;;;19.33;12.15;;;5.60;98.30;;;;;;6212263;23;20009;-68
2023/01/29 18:01:28;;;;;;;16.20;10.85;;;5.60;98.30;;;;;;6210190;23;20336;-66
2023/01/29 18:04:15;;;;;;;17.48;12.10;;;5.70;98.30;;;;;;6211944;23;20008;-69
2023/01/29 18:07:01;;;;;;;16.27;10.88;;;5.60;98.30;;;;;;6190580;23;20001;-69
2023/01/29 18:09:47;;;;;;;17.88;10.88;;;5.60;98.30;;;;;;6210474;23;20004;-69
2023/01/29 18:12:32;;;;;;;14.27;9.77;;;5.60;98.30;;;;;;6210986;23;20008;-69
2023/01/29 18:15:19;;;;;;;14.63;9.93;;;5.60;98.20;;;;;;6211049;23;20013;-68
2023/01/29 18:18:05;;;;;;;17.75;11.00;;;5.60;98.20;;;;;;6189717;23;20055;-68
2023/01/29 18:20:51;;;;;;;16.48;10.77;;;5.60;98.20;;;;;;6190361;23;20055;-68
2023/01/29 18:23:37;;;;;;;15.13;9.65;;;5.60;98.20;;;;;;6210329;23;20008;-67
2023/01/29 18:26:23;;;;;;;14.68;10.35;;;5.60;98.10;;;;;;6211820;23;20080;-68
2023/01/29 18:29:09;;;;;;;16.45;10.60;;;5.60;98.20;;;;;;6210661;23;20005;-67
2023/01/29 18:31:55;;;;;;;15.68;10.60;;;5.60;98.20;;;;;;6209123;23;20008;-67
2023/01/29 18:34:41;;;;;;;18.92;11.18;;;5.60;98.10;;;;;;6211328;23;20013;-67
2023/01/29 18:37:28;;;;;;;18.20;11.35;;;5.60;98.10;;;;;;6211580;23;20380;-67
2023/01/29 18:40:16;;;;;;;16.50;10.82;;;5.50;98.10;;;;;;6191830;23;20014;-68
2023/01/29 18:43:03;;;;;;;13.05;9.02;;;5.50;98.10;;;;;;6211941;23;20429;-67
2023/01/29 18:45:49;;;;;;;18.45;10.88;;;5.50;98.10;;;;;;6211542;23;20436;-68
2023/01/29 18:48:35;;;;;;;15.05;10.32;;;5.50;98.10;;;;;;6190779;23;20028;-68
2023/01/29 18:51:21;;;;;;;17.95;11.35;;;5.60;98.10;;;;;;6211123;23;20004;-67
2023/01/29 18:54:11;;;;;;;14.02;9.77;;;5.50;98.00;;;;;;6209308;23;20096;-68
2023/01/29 18:56:57;;;;;;;14.25;9.10;;;5.50;98.00;;;;;;6210097;23;20008;-68
2023/01/29 18:59:43;;;;;;;15.90;9.60;;;5.60;98.00;;;;;;6213103;23;20008;-68
2023/01/29 19:02:29;;;;;;;15.15;9.52;;;5.50;98.00;;;;;;6210057;23;20310;-67
2023/01/29 19:05:17;;;;;;;14.65;10.00;;;5.60;98.00;;;;;;6211382;23;20012;-68
2023/01/29 19:08:04;;;;;;;12.95;9.00;;;5.60;98.00;;;;;;6209015;23;20004;-68
2023/01/29 19:10:50;;;;;;;13.07;9.10;;;5.50;98.00;;;;;;6213212;23;20084;-69
2023/01/29 19:13:37;;;;;;;13.38;9.40;;;5.60;98.00;;;;;;6188862;23;20020;-68
2023/01/29 19:16:23;;;;;;;13.90;9.38;;;5.60;98.20;;;;;;6213480;23;20012;-68
2023/01/29 19:19:10;;;;;;;11.50;8.82;;;5.60;98.00;;;;;;6190227;23;20016;-68
2023/01/29 19:21:56;;;;;;;13.38;8.52;;;5.50;97.90;;;;;;6211816;23;20009;-68
2023/01/29 19:24:42;;;;;;;14.60;8.32;;;5.50;97.90;;;;;;6213511;23;20003;-68
2023/01/29 19:27:29;;;;;;;16.90;9.38;;;5.50;97.80;;;;;;6211078;23;20001;-68
2023/01/29 19:30:15;;;;;;;13.90;9.30;;;5.50;97.90;;;;;;6213410;23;20000;-68
2023/01/29 19:33:01;;;;;;;13.20;9.30;;;5.50;97.90;;;;;;6212819;23;20487;-68
2023/01/29 19:35:47;;;;;;;11.73;8.43;;;5.50;97.90;;;;;;6213354;23;20027;-68
2023/01/29 19:38:36;;;;;;;14.25;9.95;;;5.50;97.90;;;;;;6212723;23;20012;-68
2023/01/29 19:41:22;;;;;;;12.88;8.40;;;5.50;97.90;;;;;;6193345;23;20084;-68
2023/01/29 19:44:09;;;;;;;14.48;8.80;;;5.50;97.90;;;;;;6212632;23;20013;-68
2023/01/29 19:46:55;;;;;;;13.73;8.65;;;5.50;97.90;;;;;;6213110;23;20004;-67
2023/01/29 19:49:41;;;;;;;12.57;8.60;;;5.50;97.90;;;;;;6211962;23;20004;-68
2023/01/29 19:52:33;;;;;;;14.30;9.30;;;5.50;97.80;;;;;;6212967;23;20008;-68
2023/01/29 19:55:19;;;;;;;18.88;10.77;;;5.50;97.80;;;;;;6213329;23;20444;-68
2023/01/29 19:58:05;;;;;;;13.48;9.13;;;5.50;97.80;;;;;;6213000;23;20008;-68
2023/01/29 20:01:00;;;;;;;15.45;9.55;;;5.40;97.80;;;;;;6212277;23;20011;-68
2023/01/29 20:03:48;;;;;;;13.70;8.98;;;5.50;97.80;;;;;;6212152;23;20363;-68
2023/01/29 20:06:34;;;;;;;13.38;8.73;;;5.50;97.80;;;;;;6213591;23;20004;-68
2023/01/29 20:09:20;;;;;;;13.35;8.90;;;5.50;97.80;;;;;;6213254;23;20066;-68
2023/01/29 20:12:06;;;;;;;13.48;8.90;;;5.50;97.80;;;;;;6212446;23;20633;-68
2023/01/29 20:14:52;;;;;;;13.25;9.13;;;5.50;97.80;;;;;;6214814;23;20063;-68
2023/01/29 20:17:38;;;;;;;13.68;8.52;;;5.50;97.80;;;;;;6211864;23;20098;-70
2023/01/29 20:20:26;;;;;;;11.30;7.82;;;5.50;97.70;;;;;;6214874;23;20483;-68
2023/01/29 20:23:13;;;;;;;12.95;8.20;;;5.50;97.70;;;;;;6211213;23;20004;-67
2023/01/29 20:26:00;;;;;;;11.77;8.05;;;5.50;97.70;;;;;;6211838;23;20020;-67
2023/01/29 20:28:46;;;;;;;11.63;7.50;;;5.50;97.60;;;;;;6211916;23;20051;-68
2023/01/29 20:31:32;;;;;;;12.57;8.38;;;5.50;97.50;;;;;;6215100;23;20008;-67
2023/01/29 20:34:18;;;;;;;10.10;6.90;;;5.50;97.50;;;;;;6211208;23;20535;-68
2023/01/29 20:37:04;;;;;;;10.15;7.40;;;5.50;97.40;;;;;;6212506;23;20348;-66
2023/01/29 20:39:50;;;;;;;12.23;7.07;;;5.50;97.40;;;;;;6214032;23;20008;-67
2023/01/29 20:42:36;;;;;;;10.63;7.53;;;5.40;97.40;;;;;;6189763;23;20008;-67
2023/01/29 20:45:22;;;;;;;9.30;6.95;;;5.40;97.40;;;;;;6212321;23;20071;-67
2023/01/29 20:48:08;;;;;;;10.27;7.07;;;5.40;97.40;;;;;;6212236;23;20004;-67
2023/01/29 20:50:54;;;;;;;11.55;7.38;;;5.40;97.40;;;;;;6211635;23;20009;-68
2023/01/29 20:53:42;;;;;;;12.20;8.15;;;5.50;97.50;;;;;;6213403;23;20356;-61
2023/01/29 20:56:27;;;;;;;11.35;7.43;;;5.40;97.50;;;;;;6212174;23;20011;-65
2023/01/29 20:59:13;;;;;;;13.57;7.85;;;5.50;97.60;;;;;;6212858;23;20008;-66
2023/01/29 21:01:59;;;;;;;11.32;7.18;;;5.40;97.50;;;;;;6210343;23;20000;-65
2023/01/29 21:04:45;;;;;;;10.30;7.35;;;5.50;97.60;;;;;;6211666;23;20058;-66
2023/01/29 21:07:31;;;;;;;12.55;8.07;;;5.50;97.60;;;;;;6210350;23;20382;-66
2023/01/29 21:10:17;;;;;;;11.95;8.05;;;5.50;97.60;;;;;;6211454;23;20008;-66
2023/01/29 21:13:03;;;;;;;10.93;7.20;;;5.50;97.50;;;;;;6211037;23;20012;-66
2023/01/29 21:15:49;;;;;;;11.07;7.20;;;5.50;97.50;;;;;;6211206;23;20080;-65
2023/01/29 21:18:35;;;;;;;11.13;7.57;;;5.50;97.50;;;;;;6210561;23;20011;-64
2023/01/29 21:21:22;;;;;;;10.15;7.32;;;5.50;97.40;;;;;;6210662;23;20367;-65
2023/01/29 21:24:08;;;;;;;9.35;7.15;;;5.50;97.40;;;;;;6210401;23;20009;-65
2023/01/29 21:26:54;;;;;;;11.57;8.02;;;5.50;97.40;;;;;;6212781;23;20451;-66
2023/01/29 21:29:40;;;;;;;9.63;7.05;;;5.50;97.40;;;;;;6212852;23;20478;-65
2023/01/29 21:32:27;;;;;;;11.68;7.53;;;5.50;97.40;;;;;;6190569;23;20004;-64
2023/01/29 21:35:13;;;;;;;11.43;7.30;;;5.50;97.30;;;;;;6211707;23;20009;-66
2023/01/29 21:37:59;;;;;;;9.43;7.18;;;5.50;97.30;;;;;;6211323;23;20021;-66
2023/01/29 21:40:45;;;;;;;9.65;7.05;;;5.50;97.30;;;;;;6212469;23;20008;-66
2023/01/29 21:43:32;;;;;;;11.70;7.40;;;5.50;97.30;;;;;;6213437;23;20004;-64
2023/01/29 21:46:18;;;;;;;11.45;7.10;;;5.50;97.30;;;;;;6211180;23;20011;-64
2023/01/29 21:49:04;;;;;;;9.15;7.00;;;5.50;97.20;;;;;;6210766;23;20332;-64
2023/01/29 21:51:50;;;;;;;11.98;7.40;;;5.50;97.20;;;;;;6211075;23;20004;-64
2023/01/29 21:54:36;;;;;;;11.23;7.50;;;5.50;97.30;;;;;;6212403;23;20017;-65
2023/01/29 21:57:25;;;;;;;11.52;7.60;;;5.50;97.20;;;;;;6212087;23;20131;-65
2023/01/29 22:00:12;;;;;;;10.15;7.32;;;5.40;97.20;;;;;;6213218;23;20020;-65
2023/01/29 22:02:58;;;;;;;11.48;7.88;;;5.40;97.20;;;;;;6211617;23;20012;-65
2023/01/29 22:05:44;;;;;;;10.52;7.22;;;5.50;97.20;;;;;;6211168;23;20008;-66
2023/01/29 22:08:30;;;;;;;11.23;7.50;;;5.40;97.20;;;;;;6211719;23;20432;-66
2023/01/29 22:11:17;;;;;;;11.82;7.35;;;5.40;97.20;;;;;;6190315;23;20008;-65
2023/01/29 22:14:03;;;;;;;12.75;8.13;;;5.40;97.20;;;;;;6210486;23;20100;-65
2023/01/29 22:16:49;;;;;;;12.48;8.32;;;5.40;97.20;;;;;;6212145;23;20032;-65
2023/01/29 22:19:35;;;;;;;11.93;8.75;;;5.40;97.20;;;;;;6211467;23;20448;-65
2023/01/29 22:22:21;;;;;;;14.70;8.50;;;5.40;97.10;;;;;;6213303;23;20001;-67
2023/01/29 22:25:08;;;;;;;11.23;7.88;;;5.40;97.10;;;;;;6190118;23;20080;-67
2023/01/29 22:27:54;;;;;;;10.82;8.07;;;5.40;97.10;;;;;;6211492;23;20000;-65
2023/01/29 22:30:40;;;;;;;9.13;7.00;;;5.40;97.10;;;;;;6211595;23;20100;-65
2023/01/29 22:33:25;;;;;;;12.02;8.13;;;5.30;97.00;;;;;;6211098;23;20154;-65
2023/01/29 22:36:11;;;;;;;12.20;7.40;;;5.30;97.00;;;;;;6211245;23;20004;-65
2023/01/29 22:38:57;;;;;;;11.25;7.93;;;5.30;97.00;;;;;;6211039;23;20074;-65
2023/01/29 22:41:43;;;;;;;11.50;7.50;;;5.30;97.00;;;;;;6211024;23;20009;-65
2023/01/29 22:44:29;;;;;;;11.30;7.40;;;5.30;97.00;;;;;;6211818;23;20009;-66
2023/01/29 22:47:15;;;;;;;10.98;7.72;;;5.30;97.10;;;;;;6211684;23;20001;-65
2023/01/29 22:50:02;;;;;;;10.32;7.18;;;5.30;97.00;;;;;;6211296;23;20087;-65
2023/01/29 22:52:52;;;;;;;11.15;7.63;;;5.20;97.20;;;;;;6211849;23;20067;-65
2023/01/29 22:55:38;;;;;;;11.40;7.35;;;5.20;96.90;;;;;;6211601;23;20278;-65
2023/01/29 22:58:24;;;;;;;10.18;6.97;;;5.20;96.90;;;;;;6212086;23;20009;-65
2023/01/29 23:01:10;;;;;;;9.48;7.10;;;5.20;96.90;;;;;;6211611;23;20011;-65
2023/01/29 23:03:56;;;;;;;11.20;7.10;;;5.20;96.90;;;;;;6213872;23;20005;-65
2023/01/29 23:06:41;;;;;;;10.25;7.25;;;5.20;96.90;;;;;;6213187;23;20028;-65
2023/01/29 23:09:28;;;;;;;10.05;6.82;;;5.20;96.80;;;;;;6213195;23;20015;-65
2023/01/29 23:12:13;;;;;;;11.23;7.43;;;5.20;96.80;;;;;;6213215;23;20051;-65
2023/01/29 23:14:59;;;;;;;10.48;7.43;;;5.20;96.80;;;;;;6212220;23;20488;-65
2023/01/29 23:17:45;;;;;;;11.98;7.45;;;5.20;96.80;;;;;;6212951;23;20428;-65
2023/01/29 23:20:31;;;;;;;9.75;6.97;;;5.20;96.80;;;;;;6212995;23;20371;-65
2023/01/29 23:23:17;;;;;;;11.18;7.70;;;5.20;96.70;;;;;;6212820;23;20000;-65
2023/01/29 23:29:11;;;;;;;9.90;6.95;;;5.20;96.70;;;;;;6214794;23;20005;-65
2023/01/29 23:31:57;;;;;;;11.10;7.43;;;5.20;96.80;;;;;;6212444;23;20015;-65
2023/01/29 23:34:43;;;;;;;10.68;7.25;;;5.30;96.70;;;;;;6214143;23;20023;-66
2023/01/29 23:37:29;;;;;;;11.05;7.50;;;5.20;96.60;;;;;;6214787;23;20017;-65
2023/01/29 23:40:15;;;;;;;12.23;8.05;;;5.20;96.70;;;;;;6192485;23;20059;-66
2023/01/29 23:43:01;;;;;;;11.30;7.72;;;5.20;96.60;;;;;;6212743;23;20067;-65
2023/01/29 23:45:47;;;;;;;11.25;7.20;;;5.20;96.60;;;;;;6214049;23;20071;-66
2023/01/29 23:48:33;;;;;;;11.52;7.43;;;5.20;96.60;;;;;;6212136;23;20044;-66
2023/01/29 23:51:19;;;;;;;12.02;6.95;;;5.20;96.50;;;;;;6212252;23;20008;-65
2023/01/29 23:54:05;;;;;;;11.55;7.88;;;5.20;96.50;;;;;;6212604;23;20319;-65
2023/01/29 23:56:51;;;;;;;11.70;7.38;;;5.20;96.50;;;;;;6215158;23;20007;-66
2023/01/29 23:59:37;;;;;;;10.68;7.18;;;5.20;96.50;;;;;;6214449;23;20016;-65
